Airfield :
LOGIN :

Register | Disclaimer

   EN    FR    IT 

 










Legend :    VFR   Marginal VFR   IFR   Intensive IFR   Very Intensive IFR
Visi :
Ceiling :
>= 8 km
>= 3000ft
5 to 8 km
1000 to 3000 ft
1500m to 5 km
500 to 1000 ft
800 to 1500m
200 to 500 ft
< 800m
< 200 ft
Symbols :   Thunderstorms  Fog  Heavy snow  Heavy precipitations  Wind > 20 kt
SIGMETs :     Misc.  Thunderstorms  Icing  Turbulence  Mountain Waves  Volcanic Ashes







- Airport Elevation : 124 ft
- IATA code : AVN
- Download approach charts


LFMV - Avignon Caumont

CURRENT METAR :
  • 180830Z AUTO 36005KT CAVOK 05/04 Q1018 NOSIG

EXPIRED METARs :
  • 180800Z AUTO 00000KT CAVOK 04/04 Q1018 NOSIG
  • 180730Z AUTO VRB02KT CAVOK 02/02 Q1018 NOSIG
  • 180700Z AUTO VRB02KT CAVOK 00/00 Q1018 NOSIG
  • 180630Z AUTO 00000KT CAVOK M00/M01 Q1018 NOSIG
  • 180600Z AUTO 02002KT 6000 FEW002 M00/M00 Q1018 NOSIG

TAF TAF LFMV
Valid from the 18 at 09:00 until the 19 at 09:00 UTC


180800Z 1809/1909 36007KT CAVOK
TEMPO 1900/1906 3000 BR
PROB30
TEMPO 1900/1906 0500 FG NSC
ATIS : +33 4 90 84 32 84
No reported NOTAMs for that airfield.
1 SIGMET reported for the Marseille FIR (LFMM) :
 
Embedded thunderstorms
LFMM SIGMET 6 VALID 180700/180900 LFPW
LFMM MARSEILLE FIR/UIR EMBD TS OBS AT 0700Z WI N4045 E00500 - N4145 E00500 - N4145 E00615 - N4045 E00615 - N4045 E00500 TOP FL250 STNR WKN=



MET'MAP, your aeronautical weather chart ! - Copyright ORBIFLY December 2007 - Disclaimer

ORBIFLY MET'MAP TEAM :

Programming & Development : Alexandra Zaïnal
Concept & Development : Baudouin d'Aumeries
Co-Development & Prog : Marc-Olivier Méhu
Technical & hardware support : Manuel Goepfert

Contact : metmap@orbifly.com




SOURCES & CREDITS :

   NOAA